createdAt,value
2019-04-07T00:00:41.006Z,80.10
2019-04-07T00:03:46.137Z,80.20
2019-04-07T00:06:51.381Z,80.40
2019-04-07T00:09:57.097Z,80.40
2019-04-07T00:13:02.116Z,80.80
2019-04-07T00:16:07.269Z,80.80
2019-04-07T00:19:12.356Z,81.10
2019-04-07T00:22:17.334Z,81.10
2019-04-07T00:25:22.688Z,81.30
2019-04-07T00:28:27.744Z,81.30
2019-04-07T00:31:32.749Z,81.40
2019-04-07T00:34:38.157Z,81.60
2019-04-07T00:37:43.122Z,81.80
2019-04-07T00:40:48.412Z,81.90
2019-04-07T00:43:53.430Z,82.00
2019-04-07T00:47:00.071Z,82.30
2019-04-07T00:50:06.540Z,82.50
2019-04-07T00:53:11.791Z,82.80
2019-04-07T00:56:16.829Z,82.90
2019-04-07T00:59:21.901Z,84.00
2019-04-07T01:02:27.600Z,83.10
2019-04-07T01:05:38.397Z,84.80
2019-04-07T01:08:40.670Z,85.30
2019-04-07T01:11:45.969Z,85.30
2019-04-07T01:14:50.952Z,85.00
2019-04-07T01:17:56.512Z,85.00
2019-04-07T01:21:02.188Z,84.80
2019-04-07T01:24:07.340Z,85.00
2019-04-07T01:27:12.537Z,85.20
2019-04-07T01:30:18.370Z,85.40
2019-04-07T01:33:23.601Z,85.60
2019-04-07T01:36:29.257Z,85.50
2019-04-07T01:39:34.851Z,86.00
2019-04-07T01:43:01.007Z,86.20
2019-04-07T01:46:28.066Z,86.50
2019-04-07T01:49:51.157Z,86.40
2019-04-07T01:53:02.363Z,85.90
2019-04-07T01:56:36.223Z,86.10
2019-04-07T01:59:56.364Z,86.20
2019-04-07T02:03:12.108Z,86.60
2019-04-07T02:06:36.504Z,86.50
2019-04-07T02:09:58.921Z,86.10
2019-04-07T02:13:29.067Z,85.60
2019-04-07T02:16:59.332Z,85.80
2019-04-07T02:20:10.399Z,86.30
2019-04-07T02:23:29.489Z,85.80
2019-04-07T02:26:58.990Z,86.00
2019-04-07T02:30:35.450Z,85.80
2019-04-07T02:34:03.124Z,85.60
2019-04-07T02:37:36.265Z,86.70
2019-04-07T02:41:09.068Z,85.50
2019-04-07T02:44:49.396Z,85.30
2019-04-07T02:48:07.527Z,85.60
2019-04-07T02:51:22.878Z,85.40
2019-04-07T02:54:54.033Z,85.00
2019-04-07T02:58:25.308Z,84.90
2019-04-07T03:01:49.701Z,84.80
2019-04-07T03:05:20.982Z,84.80
2019-04-07T03:08:37.810Z,84.70
2019-04-07T03:12:07.937Z,84.60
2019-04-07T03:15:32.490Z,84.20
2019-04-07T03:18:57.979Z,84.00
2019-04-07T03:22:26.723Z,83.90
2019-04-07T03:25:57.900Z,83.90
2019-04-07T03:29:14.107Z,83.50
2019-04-07T03:32:38.898Z,84.00
2019-04-07T03:36:01.711Z,84.10
2019-04-07T03:39:26.561Z,84.20
2019-04-07T03:42:51.180Z,84.20
2019-04-07T03:46:10.410Z,84.20
2019-04-07T03:49:21.359Z,84.10
2019-04-07T03:52:45.334Z,84.10
2019-04-07T03:56:09.291Z,84.10
2019-04-07T03:59:40.632Z,84.00
2019-04-07T04:02:59.357Z,84.00
2019-04-07T04:06:20.661Z,83.90
2019-04-07T04:09:32.665Z,84.00
2019-04-07T04:13:02.454Z,84.00
2019-04-07T04:16:14.567Z,84.00
2019-04-07T04:19:20.708Z,83.70
2019-04-07T04:22:26.052Z,83.60
2019-04-07T04:25:32.216Z,83.40
2019-04-07T04:28:37.296Z,83.20
2019-04-07T04:31:43.313Z,83.00
2019-04-07T04:34:48.338Z,82.90
2019-04-07T04:37:54.875Z,82.60
2019-04-07T04:41:00.269Z,82.80
2019-04-07T04:44:06.590Z,82.50
2019-04-07T04:47:12.503Z,82.30
2019-04-07T04:50:17.560Z,82.10
2019-04-07T04:53:22.725Z,82.00
2019-04-07T04:56:28.809Z,82.00
2019-04-07T04:59:33.816Z,83.00
2019-04-07T05:02:39.471Z,82.50
2019-04-07T05:05:44.730Z,82.70
2019-04-07T05:08:51.153Z,82.60
2019-04-07T05:11:56.510Z,82.90
2019-04-07T05:15:01.716Z,82.90
2019-04-07T05:18:06.899Z,82.90
2019-04-07T05:21:11.899Z,82.20
2019-04-07T05:24:18.231Z,81.90
2019-04-07T05:27:23.936Z,81.70
2019-04-07T05:30:29.127Z,81.40
2019-04-07T05:33:34.540Z,81.80
2019-04-07T05:36:40.116Z,80.70
2019-04-07T05:39:46.287Z,80.60
2019-04-07T05:42:51.331Z,80.30
2019-04-07T05:45:56.688Z,79.90
2019-04-07T05:49:02.101Z,79.40
2019-04-07T05:52:07.379Z,79.10
2019-04-07T05:55:13.097Z,78.00
2019-04-07T05:58:18.078Z,77.90
2019-04-07T06:01:24.384Z,78.10
2019-04-07T06:04:30.344Z,78.00
2019-04-07T06:07:36.787Z,77.90
2019-04-07T06:10:42.366Z,78.00
2019-04-07T06:13:47.507Z,78.20
2019-04-07T06:16:54.579Z,76.80
2019-04-07T06:19:59.396Z,76.20
2019-04-07T06:23:04.283Z,76.00
2019-04-07T06:26:11.666Z,74.90
2019-04-07T06:29:16.107Z,75.30
2019-04-07T06:32:21.876Z,74.40
2019-04-07T06:35:27.014Z,73.10
2019-04-07T06:38:34.896Z,70.00
2019-04-07T06:41:39.074Z,65.30
2019-04-07T06:44:44.581Z,60.50
2019-04-07T06:47:53.448Z,56.80
2019-04-07T06:51:03.907Z,54.30
2019-04-07T06:54:29.858Z,52.20
2019-04-07T06:57:52.917Z,49.00
2019-04-07T07:01:12.199Z,46.10
2019-04-07T07:04:36.680Z,42.80
2019-04-07T07:07:49.790Z,41.20
2019-04-07T07:11:24.808Z,40.50
2019-04-07T07:14:46.688Z,38.90
2019-04-07T07:18:20.009Z,37.00
2019-04-07T07:21:44.478Z,34.40
2019-04-07T07:24:50.311Z,33.30
2019-04-07T07:27:55.688Z,32.70
2019-04-07T07:31:00.931Z,31.10
2019-04-07T07:34:09.310Z,29.70
2019-04-07T07:37:13.368Z,28.50
2019-04-07T07:40:18.560Z,27.60
2019-04-07T07:43:24.052Z,27.00
2019-04-07T07:46:29.014Z,26.80
2019-04-07T07:49:36.763Z,26.60
2019-04-07T07:52:40.915Z,25.90
2019-04-07T07:55:46.651Z,26.30
2019-04-07T07:58:51.624Z,26.80
2019-04-07T08:01:56.508Z,27.60
2019-04-07T08:05:01.834Z,28.00
2019-04-07T08:08:06.851Z,28.30
2019-04-07T08:11:15.173Z,29.50
2019-04-07T08:14:19.889Z,29.20
2019-04-07T08:17:24.953Z,28.90
2019-04-07T08:20:30.587Z,27.60
2019-04-07T08:23:36.242Z,26.20
2019-04-07T08:26:41.139Z,23.60
2019-04-07T08:29:46.250Z,24.10
2019-04-07T08:32:51.184Z,24.60
2019-04-07T08:35:56.826Z,24.00
2019-04-07T08:39:01.787Z,24.30
2019-04-07T08:42:10.755Z,24.30
2019-04-07T08:45:13.475Z,24.90
2019-04-07T08:48:20.532Z,23.40
2019-04-07T08:51:27.427Z,22.30
2019-04-07T08:54:32.931Z,20.20
2019-04-07T08:57:38.044Z,19.10
2019-04-07T09:00:50.990Z,18.40
2019-04-07T09:03:54.216Z,17.50
2019-04-07T09:07:01.594Z,17.20
2019-04-07T09:10:07.299Z,16.60
2019-04-07T09:13:33.656Z,15.90
2019-04-07T09:17:03.385Z,15.20
2019-04-07T09:20:27.957Z,14.70
2019-04-07T09:23:50.718Z,16.10
2019-04-07T09:27:23.404Z,16.30
2019-04-07T09:30:40.145Z,16.80
2019-04-07T09:34:03.070Z,16.60
2019-04-07T09:37:39.826Z,16.40
2019-04-07T09:41:09.654Z,16.00
2019-04-07T09:44:36.035Z,18.00
2019-04-07T09:47:57.657Z,20.60
2019-04-07T09:51:19.687Z,22.00
2019-04-07T09:54:46.238Z,21.80
2019-04-07T09:58:08.071Z,22.00
2019-04-07T10:01:34.138Z,22.90
2019-04-07T10:05:04.006Z,24.10
2019-04-07T10:08:26.710Z,25.60
2019-04-07T10:11:50.824Z,27.80
2019-04-07T10:15:15.317Z,28.70
2019-04-07T10:18:45.936Z,29.30
2019-04-07T10:22:25.568Z,30.40
2019-04-07T10:25:37.814Z,32.60
2019-04-07T10:29:07.144Z,32.70
2019-04-07T10:32:29.746Z,33.00
2019-04-07T10:36:01.759Z,34.10
2019-04-07T10:39:22.987Z,34.50
2019-04-07T10:42:45.916Z,33.70
2019-04-07T10:46:15.775Z,33.70
2019-04-07T10:49:36.302Z,34.50
2019-04-07T10:53:01.409Z,34.60
2019-04-07T10:56:20.960Z,34.70
2019-04-07T10:59:54.133Z,35.40
2019-04-07T11:03:16.590Z,36.10
2019-04-07T11:06:50.184Z,36.60
2019-04-07T11:10:14.464Z,36.50
2019-04-07T11:13:38.687Z,35.50
2019-04-07T11:16:52.499Z,35.80
2019-04-07T11:20:06.563Z,36.60
2019-04-07T11:23:26.999Z,37.10
2019-04-07T11:27:00.006Z,36.50
2019-04-07T11:30:25.383Z,36.30
2019-04-07T11:33:39.530Z,37.00
2019-04-07T11:36:54.846Z,36.70
2019-04-07T11:40:42.048Z,36.40
2019-04-07T11:44:09.242Z,37.50
2019-04-07T11:47:26.327Z,37.00
2019-04-07T11:50:56.529Z,37.90
2019-04-07T11:54:29.689Z,37.60
2019-04-07T11:58:06.387Z,37.50
2019-04-07T12:01:29.278Z,37.40
2019-04-07T12:04:55.371Z,39.10
2019-04-07T12:08:24.576Z,38.80
2019-04-07T12:11:59.830Z,38.40
2019-04-07T12:15:28.906Z,38.70
2019-04-07T12:18:53.707Z,36.60
2019-04-07T12:22:18.139Z,36.50
2019-04-07T12:25:57.709Z,36.80
2019-04-07T12:29:28.698Z,37.10
2019-04-07T12:33:05.028Z,36.60
2019-04-07T12:36:30.819Z,36.80
2019-04-07T12:40:01.834Z,36.70
2019-04-07T12:43:17.398Z,36.50
2019-04-07T12:46:50.975Z,35.70
2019-04-07T12:50:16.689Z,35.60
2019-04-07T12:53:37.117Z,35.80
2019-04-07T12:57:02.560Z,35.10
2019-04-07T13:00:39.064Z,35.80
2019-04-07T13:04:04.651Z,35.40
2019-04-07T13:07:24.254Z,34.10
2019-04-07T13:10:47.923Z,34.00
2019-04-07T13:14:23.431Z,34.50
2019-04-07T13:17:58.879Z,34.90
2019-04-07T13:21:41.086Z,34.70
2019-04-07T13:25:05.820Z,35.00
2019-04-07T13:28:17.739Z,36.30
2019-04-07T13:31:28.829Z,37.90
2019-04-07T13:34:44.300Z,38.90
2019-04-07T13:38:07.749Z,39.30
2019-04-07T13:41:44.248Z,39.50
2019-04-07T13:44:53.733Z,40.40
2019-04-07T13:48:26.554Z,41.30
2019-04-07T13:51:47.319Z,41.60
2019-04-07T13:55:04.547Z,40.60
2019-04-07T13:58:18.550Z,40.80
2019-04-07T14:01:39.653Z,40.40
2019-04-07T14:05:05.148Z,41.20
2019-04-07T14:08:19.916Z,41.80
2019-04-07T14:11:54.056Z,42.50
2019-04-07T14:15:02.919Z,42.20
2019-04-07T14:18:15.466Z,42.40
2019-04-07T14:21:41.081Z,44.00
2019-04-07T14:25:12.876Z,43.90
2019-04-07T14:28:33.451Z,42.90
2019-04-07T14:31:57.678Z,41.70
2019-04-07T14:35:19.422Z,42.40
2019-04-07T14:38:45.486Z,43.30
2019-04-07T14:42:04.952Z,43.40
2019-04-07T14:45:37.375Z,44.10
2019-04-07T14:48:55.377Z,44.50
2019-04-07T14:52:31.827Z,45.30
2019-04-07T14:56:02.153Z,46.00
2019-04-07T14:59:30.760Z,46.20
2019-04-07T15:02:36.509Z,45.80
2019-04-07T15:05:45.007Z,46.00
2019-04-07T15:09:12.227Z,46.30
2019-04-07T15:12:36.262Z,46.90
2019-04-07T15:15:41.923Z,47.50
2019-04-07T15:18:47.107Z,48.30
2019-04-07T15:21:54.133Z,47.70
2019-04-07T15:24:59.347Z,48.00
2019-04-07T15:28:05.174Z,47.70
2019-04-07T15:31:10.154Z,48.70
2019-04-07T15:34:15.367Z,48.40
2019-04-07T15:37:23.553Z,49.40
2019-04-07T15:40:26.906Z,50.00
2019-04-07T15:43:34.906Z,50.50
2019-04-07T15:46:38.766Z,50.60
2019-04-07T15:49:43.873Z,51.20
2019-04-07T15:52:49.644Z,51.70
2019-04-07T15:56:02.297Z,51.90
2019-04-07T15:59:02.411Z,52.10
2019-04-07T16:02:10.100Z,51.90
2019-04-07T16:05:14.834Z,51.70
2019-04-07T16:08:20.162Z,50.40
2019-04-07T16:11:28.308Z,50.00
2019-04-07T16:14:32.076Z,50.70
2019-04-07T16:17:37.365Z,51.40
2019-04-07T16:20:43.293Z,52.10
2019-04-07T16:23:51.879Z,51.30
2019-04-07T16:26:54.971Z,52.60
2019-04-07T16:30:01.123Z,53.20
2019-04-07T16:33:06.305Z,52.00
2019-04-07T16:36:11.175Z,52.60
2019-04-07T16:39:16.427Z,52.60
2019-04-07T16:42:21.156Z,52.50
2019-04-07T16:45:27.147Z,53.50
2019-04-07T16:48:36.014Z,54.80
2019-04-07T16:51:38.971Z,55.80
2019-04-07T16:54:44.988Z,55.50
2019-04-07T16:57:50.945Z,56.10
2019-04-07T17:00:56.232Z,57.10
2019-04-07T17:04:01.313Z,57.60
2019-04-07T17:07:11.404Z,57.40
2019-04-07T17:10:13.687Z,58.10
2019-04-07T17:13:23.768Z,58.30
2019-04-07T17:16:25.185Z,58.40
2019-04-07T17:19:30.306Z,58.10
2019-04-07T17:22:35.885Z,58.00
2019-04-07T17:25:41.725Z,58.40
2019-04-07T17:28:48.243Z,58.00
2019-04-07T17:31:54.392Z,58.20
2019-04-07T17:34:59.809Z,59.30
2019-04-07T17:38:06.876Z,59.80
2019-04-07T17:41:15.573Z,59.70
2019-04-07T17:44:41.545Z,61.30
2019-04-07T17:48:02.998Z,62.10
2019-04-07T17:51:13.606Z,62.60
2019-04-07T17:54:41.582Z,62.80
2019-04-07T17:58:11.561Z,63.90
2019-04-07T18:01:38.967Z,63.50
2019-04-07T18:05:08.513Z,64.10
2019-04-07T18:08:34.291Z,65.00
2019-04-07T18:11:48.798Z,66.10
2019-04-07T18:15:28.188Z,66.40
2019-04-07T18:18:49.791Z,67.00
2019-04-07T18:22:22.608Z,67.30
2019-04-07T18:25:50.877Z,67.60
2019-04-07T18:29:17.949Z,67.40
2019-04-07T18:32:48.051Z,68.10
2019-04-07T18:36:31.042Z,68.60
2019-04-07T18:40:10.961Z,68.30
2019-04-07T18:43:33.735Z,68.90
2019-04-07T18:46:57.191Z,69.30
2019-04-07T18:50:21.925Z,69.20
2019-04-07T18:54:05.502Z,68.70
2019-04-07T18:57:22.781Z,68.90
2019-04-07T19:00:45.765Z,69.40
2019-04-07T19:04:06.684Z,69.90
2019-04-07T19:07:30.653Z,70.00
2019-04-07T19:11:12.447Z,69.70
2019-04-07T19:14:40.235Z,70.00
2019-04-07T19:18:06.757Z,69.50
2019-04-07T19:21:32.105Z,69.50
2019-04-07T19:24:56.279Z,70.10
2019-04-07T19:28:26.334Z,70.00
2019-04-07T19:31:56.332Z,69.70
2019-04-07T19:35:29.725Z,69.40
2019-04-07T19:39:00.984Z,69.10
2019-04-07T19:42:23.951Z,69.10
2019-04-07T19:45:47.402Z,69.40
2019-04-07T19:49:13.503Z,69.50
2019-04-07T19:52:42.844Z,68.80
2019-04-07T19:56:06.738Z,68.90
2019-04-07T19:59:33.710Z,68.80
2019-04-07T20:02:47.323Z,68.80
2019-04-07T20:06:24.867Z,68.80
2019-04-07T20:10:04.504Z,68.90
2019-04-07T20:13:31.835Z,67.90
2019-04-07T20:16:59.789Z,68.40
2019-04-07T20:20:24.636Z,70.20
2019-04-07T20:23:52.238Z,71.20
2019-04-07T20:27:15.405Z,71.90
2019-04-07T20:30:39.204Z,71.90
2019-04-07T20:34:06.232Z,72.50
2019-04-07T20:37:26.642Z,72.10
2019-04-07T20:40:56.041Z,71.60
2019-04-07T20:44:33.675Z,71.70
2019-04-07T20:48:00.262Z,72.70
2019-04-07T20:51:22.108Z,71.90
2019-04-07T20:55:21.171Z,72.20
2019-04-07T20:58:55.493Z,72.40
2019-04-07T21:02:29.352Z,72.20
2019-04-07T21:06:03.297Z,72.60
2019-04-07T21:09:32.307Z,72.40
2019-04-07T21:12:45.049Z,72.60
2019-04-07T21:16:11.066Z,72.80
2019-04-07T21:19:45.482Z,72.50
2019-04-07T21:23:17.330Z,72.50
2019-04-07T21:26:28.472Z,72.10
2019-04-07T21:29:44.545Z,73.10
2019-04-07T21:33:22.470Z,72.30
2019-04-07T21:36:33.278Z,72.30
2019-04-07T21:39:53.661Z,72.10
2019-04-07T21:43:28.000Z,72.50
2019-04-07T21:47:04.529Z,72.60
2019-04-07T21:50:28.123Z,72.90
2019-04-07T21:53:55.277Z,72.50
2019-04-07T21:57:19.354Z,72.20
2019-04-07T22:00:43.963Z,72.30
2019-04-07T22:04:19.965Z,72.30
2019-04-07T22:07:55.653Z,72.00
2019-04-07T22:11:01.545Z,72.10
2019-04-07T22:14:07.735Z,72.50
2019-04-07T22:17:13.536Z,72.50
2019-04-07T22:20:20.624Z,73.00
2019-04-07T22:23:30.640Z,72.00
2019-04-07T22:26:35.166Z,71.80
2019-04-07T22:29:39.972Z,72.00
2019-04-07T22:32:44.896Z,72.10
2019-04-07T22:35:50.001Z,71.90
2019-04-07T22:38:58.474Z,71.80
2019-04-07T22:42:02.240Z,71.70
2019-04-07T22:45:08.197Z,71.30
2019-04-07T22:48:14.183Z,70.70
2019-04-07T22:51:19.214Z,70.60
2019-04-07T22:54:27.393Z,70.40
2019-04-07T22:57:31.355Z,70.20
2019-04-07T23:00:37.121Z,70.10
2019-04-07T23:03:42.028Z,70.60
2019-04-07T23:06:47.833Z,71.40
2019-04-07T23:09:53.811Z,71.70
2019-04-07T23:12:59.421Z,72.20
2019-04-07T23:16:11.897Z,72.50
2019-04-07T23:19:11.445Z,72.70
2019-04-07T23:22:16.525Z,72.90
2019-04-07T23:25:23.018Z,73.20
2019-04-07T23:28:28.113Z,73.30
2019-04-07T23:31:34.473Z,73.70
2019-04-07T23:34:39.467Z,74.00
2019-04-07T23:37:44.364Z,73.90
2019-04-07T23:40:49.504Z,73.80
2019-04-07T23:43:54.907Z,73.70
2019-04-07T23:46:59.900Z,73.50
2019-04-07T23:50:05.328Z,73.30
2019-04-07T23:53:47.336Z,73.50
2019-04-07T23:56:52.416Z,73.20
2019-04-07T23:59:58.232Z,73.60
